createdAt,value
2018-11-21T00:01:17.865Z,0.40
2018-11-21T00:03:46.740Z,0.30
2018-11-21T00:06:15.602Z,0.40
2018-11-21T00:08:45.107Z,0.40
2018-11-21T00:11:14.269Z,0.30
2018-11-21T00:13:43.101Z,0.40
2018-11-21T00:16:11.945Z,0.40
2018-11-21T00:18:40.785Z,0.40
2018-11-21T00:21:09.944Z,0.30
2018-11-21T00:23:38.863Z,0.20
2018-11-21T00:26:07.834Z,0.30
2018-11-21T00:28:36.568Z,0.30
2018-11-21T00:31:05.524Z,0.30
2018-11-21T00:33:34.343Z,0.40
2018-11-21T00:36:03.194Z,0.40
2018-11-21T00:38:32.023Z,0.40
2018-11-21T00:41:00.874Z,0.50
2018-11-21T00:43:29.753Z,0.40
2018-11-21T00:45:58.882Z,0.40
2018-11-21T00:48:27.719Z,0.50
2018-11-21T00:50:56.559Z,0.40
2018-11-21T00:53:25.517Z,0.40
2018-11-21T00:55:54.390Z,0.40
2018-11-21T00:58:23.225Z,0.50
2018-11-21T01:00:52.323Z,0.50
2018-11-21T01:03:21.153Z,0.50
2018-11-21T01:05:50.051Z,0.40
2018-11-21T01:08:19.484Z,0.40
2018-11-21T01:10:48.604Z,0.40
2018-11-21T01:13:17.505Z,0.30
2018-11-21T01:15:46.333Z,0.40
2018-11-21T01:18:15.685Z,0.40
2018-11-21T01:20:44.879Z,0.40
2018-11-21T01:23:13.723Z,0.50
2018-11-21T01:25:42.553Z,0.50
2018-11-21T01:28:11.384Z,0.60
2018-11-21T01:30:40.221Z,0.60
2018-11-21T01:33:09.739Z,0.50
2018-11-21T01:35:37.907Z,0.40
2018-11-21T01:38:06.752Z,0.40
2018-11-21T01:40:35.593Z,0.30
2018-11-21T01:43:04.652Z,0.30
2018-11-21T01:45:33.503Z,0.40
2018-11-21T01:48:02.357Z,0.40
2018-11-21T01:50:31.275Z,0.40
2018-11-21T01:53:00.207Z,1.70
2018-11-21T01:55:29.052Z,0.50
2018-11-21T01:57:57.878Z,0.40
2018-11-21T02:00:26.716Z,0.40
2018-11-21T02:02:55.855Z,0.40
2018-11-21T02:05:25.089Z,0.50
2018-11-21T02:07:54.194Z,0.30
2018-11-21T02:10:23.367Z,0.30
2018-11-21T02:12:52.619Z,0.30
2018-11-21T02:15:21.451Z,0.30
2018-11-21T02:17:50.275Z,0.20
2018-11-21T02:20:19.115Z,0.20
2018-11-21T02:22:47.977Z,0.20
2018-11-21T02:25:16.985Z,0.20
2018-11-21T02:27:45.833Z,0.20
2018-11-21T02:30:14.682Z,0.20
2018-11-21T02:32:43.524Z,0.20
2018-11-21T02:35:12.390Z,0.20
2018-11-21T02:37:41.470Z,0.30
2018-11-21T02:40:10.306Z,0.40
2018-11-21T02:42:39.133Z,0.40
2018-11-21T02:45:07.995Z,0.50
2018-11-21T02:47:36.833Z,0.50
2018-11-21T02:50:05.921Z,0.50
2018-11-21T02:52:34.875Z,0.50
2018-11-21T02:55:03.701Z,0.50
2018-11-21T02:57:33.648Z,0.50
2018-11-21T03:00:14.174Z,0.50
2018-11-21T03:02:43.000Z,0.40
2018-11-21T03:05:11.847Z,0.40
2018-11-21T03:07:49.980Z,0.30
2018-11-21T03:10:19.657Z,0.30
2018-11-21T03:12:48.486Z,0.40
2018-11-21T03:15:17.477Z,0.40
2018-11-21T03:17:46.566Z,0.50
2018-11-21T03:20:15.687Z,0.50
2018-11-21T03:22:44.534Z,0.40
2018-11-21T03:25:13.535Z,0.40
2018-11-21T03:27:42.396Z,0.50
2018-11-21T03:30:12.477Z,0.50
2018-11-21T03:32:41.755Z,0.40
2018-11-21T03:35:10.606Z,0.40
2018-11-21T03:37:39.449Z,0.40
2018-11-21T03:40:09.977Z,0.40
2018-11-21T03:42:39.253Z,0.40
2018-11-21T03:45:12.358Z,0.40
2018-11-21T03:47:41.212Z,0.40
2018-11-21T03:50:11.357Z,0.50
2018-11-21T03:52:40.190Z,0.50
2018-11-21T03:55:09.766Z,0.50
2018-11-21T03:57:38.660Z,0.50
2018-11-21T04:00:09.378Z,0.50
2018-11-21T04:02:38.217Z,0.50
2018-11-21T04:05:07.903Z,0.40
2018-11-21T04:07:36.984Z,0.50
2018-11-21T04:10:08.949Z,0.50
2018-11-21T04:12:38.154Z,0.50
2018-11-21T04:15:09.074Z,0.40
2018-11-21T04:17:37.912Z,0.40
2018-11-21T04:20:06.874Z,0.40
2018-11-21T04:22:35.721Z,0.40
2018-11-21T04:25:05.340Z,0.40
2018-11-21T04:27:34.214Z,0.40
2018-11-21T04:30:03.048Z,0.40
2018-11-21T04:32:32.225Z,0.40
2018-11-21T04:35:01.110Z,0.40
2018-11-21T04:37:30.016Z,0.30
2018-11-21T04:39:58.843Z,0.40
2018-11-21T04:42:27.757Z,0.50
2018-11-21T04:44:56.970Z,0.50
2018-11-21T04:47:25.805Z,0.60
2018-11-21T04:49:54.642Z,0.60
2018-11-21T04:52:23.476Z,0.60
2018-11-21T04:54:52.310Z,0.60
2018-11-21T04:57:21.555Z,0.50
2018-11-21T04:59:50.373Z,0.60
2018-11-21T05:02:19.261Z,0.50
2018-11-21T05:04:48.056Z,0.50
2018-11-21T05:07:16.970Z,0.50
2018-11-21T05:09:45.842Z,0.40
2018-11-21T05:12:14.694Z,0.40
2018-11-21T05:14:43.915Z,0.40
2018-11-21T05:17:12.758Z,0.40
2018-11-21T05:19:41.966Z,0.40
2018-11-21T05:22:10.891Z,0.50
2018-11-21T05:24:39.721Z,0.50
2018-11-21T05:27:08.554Z,0.60
2018-11-21T05:29:37.381Z,0.60
2018-11-21T05:32:06.335Z,0.60
2018-11-21T05:34:35.501Z,0.70
2018-11-21T05:37:04.759Z,0.70
2018-11-21T05:39:33.609Z,0.70
2018-11-21T05:42:02.442Z,0.70
2018-11-21T05:44:32.025Z,0.60
2018-11-21T05:47:00.840Z,0.50
2018-11-21T05:49:29.665Z,0.50
2018-11-21T05:51:58.859Z,0.60
2018-11-21T05:54:27.708Z,0.60
2018-11-21T05:56:56.529Z,0.60
2018-11-21T05:59:26.104Z,0.60
2018-11-21T06:01:55.000Z,0.70
2018-11-21T06:04:23.969Z,0.60
2018-11-21T06:06:52.916Z,0.60
2018-11-21T06:09:21.661Z,0.90
2018-11-21T06:11:50.852Z,0.90
2018-11-21T06:14:19.693Z,0.70
2018-11-21T06:16:48.671Z,0.60
2018-11-21T06:19:17.520Z,0.50
2018-11-21T06:21:46.358Z,0.60
2018-11-21T06:24:15.214Z,0.60
2018-11-21T06:26:47.832Z,0.50
2018-11-21T06:29:16.673Z,0.50
2018-11-21T06:31:45.851Z,0.60
2018-11-21T06:34:14.683Z,0.50
2018-11-21T06:36:43.534Z,0.50
2018-11-21T06:39:12.385Z,0.50
2018-11-21T06:41:41.464Z,0.50
2018-11-21T06:44:11.356Z,0.50
2018-11-21T06:46:40.428Z,0.60
2018-11-21T06:49:10.050Z,0.60
2018-11-21T06:51:38.908Z,0.60
2018-11-21T06:54:10.119Z,0.70
2018-11-21T06:56:38.895Z,0.70
2018-11-21T06:59:07.899Z,0.70
2018-11-21T07:01:41.771Z,0.70
2018-11-21T07:04:10.927Z,0.70
2018-11-21T07:06:39.877Z,0.70
2018-11-21T07:09:09.998Z,0.70
2018-11-21T07:11:38.920Z,0.70
2018-11-21T07:14:08.153Z,0.70
2018-11-21T07:16:38.151Z,0.80
2018-11-21T07:19:06.987Z,0.80
2018-11-21T07:21:35.875Z,0.90
2018-11-21T07:24:05.531Z,0.80
2018-11-21T07:26:35.125Z,0.70
2018-11-21T07:29:04.089Z,0.70
2018-11-21T07:31:33.407Z,0.70
2018-11-21T07:34:02.184Z,0.70
2018-11-21T07:36:31.324Z,0.70
2018-11-21T07:39:00.182Z,0.90
2018-11-21T07:41:29.016Z,1.00
2018-11-21T07:43:57.850Z,1.10
2018-11-21T07:46:26.687Z,1.10
2018-11-21T07:48:55.896Z,1.00
2018-11-21T07:51:25.057Z,1.00
2018-11-21T07:53:53.901Z,0.90
2018-11-21T07:57:20.358Z,0.90
2018-11-21T08:00:50.181Z,0.90
2018-11-21T08:03:19.568Z,0.90
2018-11-21T08:05:53.748Z,0.90
2018-11-21T08:08:40.921Z,0.80
2018-11-21T08:11:27.646Z,0.90
2018-11-21T08:14:18.753Z,0.90
2018-11-21T08:17:03.990Z,0.90
2018-11-21T08:19:50.271Z,0.90
2018-11-21T08:22:47.195Z,1.00
2018-11-21T08:25:33.954Z,1.10
2018-11-21T08:28:20.612Z,1.10
2018-11-21T08:30:50.662Z,1.10
2018-11-21T08:33:19.947Z,1.20
2018-11-21T08:35:49.202Z,1.10
2018-11-21T08:38:18.780Z,1.10
2018-11-21T08:40:47.615Z,1.20
2018-11-21T08:43:16.474Z,1.30
2018-11-21T08:45:45.420Z,1.30
2018-11-21T08:48:18.400Z,1.20
2018-11-21T08:50:48.415Z,1.00
2018-11-21T08:53:17.242Z,1.00
2018-11-21T08:55:46.081Z,1.00
2018-11-21T08:58:14.934Z,0.90
2018-11-21T09:00:44.298Z,0.90
2018-11-21T09:03:32.810Z,1.10
2018-11-21T09:06:04.346Z,1.20
2018-11-21T09:08:30.551Z,1.10
2018-11-21T09:10:59.408Z,1.00
2018-11-21T09:13:28.423Z,1.10
2018-11-21T09:15:57.531Z,1.30
2018-11-21T09:18:26.430Z,1.30
2018-11-21T09:20:55.290Z,1.10
2018-11-21T09:23:24.287Z,1.10
2018-11-21T09:25:53.126Z,1.20
2018-11-21T09:28:22.311Z,1.30
2018-11-21T09:30:51.706Z,1.20
2018-11-21T09:33:20.966Z,1.40
2018-11-21T09:35:50.071Z,1.50
2018-11-21T09:38:18.907Z,1.30
2018-11-21T09:40:47.959Z,1.10
2018-11-21T09:43:17.295Z,1.10
2018-11-21T09:45:46.229Z,1.00
2018-11-21T09:48:15.087Z,1.10
2018-11-21T09:50:44.205Z,1.20
2018-11-21T09:53:13.072Z,1.40
2018-11-21T09:55:41.944Z,1.60
2018-11-21T09:58:10.810Z,1.50
2018-11-21T10:01:16.514Z,1.50
2018-11-21T10:03:45.637Z,1.40
2018-11-21T10:06:22.741Z,1.30
2018-11-21T10:08:56.752Z,1.30
2018-11-21T10:11:26.186Z,1.30
2018-11-21T10:13:55.072Z,1.40
2018-11-21T10:16:24.329Z,1.50
2018-11-21T10:18:54.734Z,1.60
2018-11-21T10:21:31.028Z,1.60
2018-11-21T10:23:59.939Z,1.60
2018-11-21T10:26:28.898Z,1.60
2018-11-21T10:28:57.813Z,1.50
2018-11-21T10:31:26.652Z,1.50
2018-11-21T10:33:55.812Z,1.60
2018-11-21T10:36:24.657Z,1.70
2018-11-21T10:38:53.502Z,1.70
2018-11-21T10:41:22.331Z,1.80
2018-11-21T10:43:51.179Z,1.90
2018-11-21T10:46:20.027Z,2.00
2018-11-21T10:48:49.377Z,1.90
2018-11-21T10:51:18.291Z,1.90
2018-11-21T10:53:47.135Z,1.90
2018-11-21T10:56:15.979Z,2.00
2018-11-21T10:58:44.839Z,1.90
2018-11-21T11:01:31.524Z,1.80
2018-11-21T11:04:06.584Z,1.90
2018-11-21T11:06:53.710Z,1.70
2018-11-21T11:09:40.733Z,1.60
2018-11-21T11:12:27.889Z,1.60
2018-11-21T11:15:19.291Z,1.50
2018-11-21T11:18:06.064Z,1.50
2018-11-21T11:20:56.921Z,1.60
2018-11-21T11:23:43.924Z,1.60
2018-11-21T11:26:30.391Z,1.50
2018-11-21T11:29:17.419Z,1.60
2018-11-21T11:32:06.067Z,1.70
2018-11-21T11:34:53.354Z,1.90
2018-11-21T11:37:48.918Z,1.90
2018-11-21T11:40:47.135Z,1.80
2018-11-21T11:43:32.452Z,2.00
2018-11-21T11:46:18.882Z,2.10
2018-11-21T11:49:07.376Z,2.20
2018-11-21T11:51:58.691Z,2.40
2018-11-21T11:55:02.718Z,2.50
2018-11-21T11:57:53.696Z,2.40
2018-11-21T12:00:48.277Z,2.30
2018-11-21T12:03:45.133Z,2.50
2018-11-21T12:06:36.296Z,2.50
2018-11-21T12:09:27.279Z,2.20
2018-11-21T12:12:24.906Z,2.20
2018-11-21T12:15:22.628Z,2.30
2018-11-21T12:18:17.127Z,2.40
2018-11-21T12:21:14.462Z,2.60
2018-11-21T12:24:01.621Z,2.40
2018-11-21T12:26:59.067Z,2.40
2018-11-21T12:29:51.680Z,2.20
2018-11-21T12:32:39.225Z,2.20
2018-11-21T12:35:37.086Z,2.30
2018-11-21T12:38:25.290Z,2.10
2018-11-21T12:41:12.428Z,1.90
2018-11-21T12:44:01.312Z,1.90
2018-11-21T12:46:49.739Z,2.10
2018-11-21T12:49:52.612Z,2.10
2018-11-21T12:52:32.816Z,2.20
2018-11-21T12:55:36.789Z,2.30
2018-11-21T12:58:24.642Z,2.20
2018-11-21T13:01:11.657Z,2.00
2018-11-21T13:03:55.910Z,2.00
2018-11-21T13:06:55.907Z,2.10
2018-11-21T13:09:45.422Z,2.00
2018-11-21T13:12:26.351Z,2.10
2018-11-21T13:15:16.432Z,2.20
2018-11-21T13:18:03.433Z,2.20
2018-11-21T13:20:45.443Z,2.00
2018-11-21T13:23:27.543Z,1.80
2018-11-21T13:26:14.485Z,1.70
2018-11-21T13:28:53.677Z,1.70
2018-11-21T13:31:40.671Z,1.70
